Time;durP1;ratioP1;P1;durP2;ratioP2;P2;SDS_P1;SDS_P2;PMS_P1;PMS_P2;Temp;Humidity;BMP_temperature;BMP_pressure;BME280_temperature;BME280_humidity;BME280_pressure;Samples;Min_cycle;Max_cycle;Signal;HPM_P1;HPM_P2
2023/10/31 00:02:16;;;;;;;10.97;10.00;;;;;;;;;;4937307;29;20418;-44
2023/10/31 00:04:41;;;;;;;10.17;9.23;;;;;;;;;;4937154;29;20466;-45
2023/10/31 00:07:07;;;;;;;10.30;9.20;;;;;;;;;;4937112;29;20483;-44
2023/10/31 00:09:33;;;;;;;45.37;40.60;;;;;;;;;;4936415;28;20424;-44
2023/10/31 00:12:00;;;;;;;49.13;42.77;;;;;;;;;;4937024;29;20409;-44
2023/10/31 00:14:26;;;;;;;47.53;41.37;;;;;;;;;;4937138;29;20480;-44
2023/10/31 00:16:52;;;;;;;39.20;35.60;;;;;;;;;;4936989;29;20459;-44
2023/10/31 00:19:18;;;;;;;50.13;44.93;;;;;;;;;;4936150;29;21404;-44
2023/10/31 00:21:43;;;;;;;27.27;25.30;;;;;;;;;;4936638;29;20427;-44
2023/10/31 00:24:09;;;;;;;15.43;14.23;;;;;;;;;;4936973;29;20445;-43
2023/10/31 00:26:35;;;;;;;15.60;14.43;;;;;;;;;;4937017;29;20466;-44
2023/10/31 00:29:01;;;;;;;20.20;18.40;;;;;;;;;;4936525;29;20511;-44
2023/10/31 00:31:27;;;;;;;19.90;18.50;;;;;;;;;;4936342;29;20421;-44
2023/10/31 00:33:53;;;;;;;17.77;16.47;;;;;;;;;;4936774;29;20901;-44
2023/10/31 00:36:19;;;;;;;20.83;19.33;;;;;;;;;;4936497;29;20922;-44
2023/10/31 00:38:45;;;;;;;17.00;15.60;;;;;;;;;;4937071;29;20426;-44
2023/10/31 00:41:11;;;;;;;16.17;14.93;;;;;;;;;;4935827;29;20668;-44
2023/10/31 00:43:37;;;;;;;17.13;15.87;;;;;;;;;;4936627;29;20485;-44
2023/10/31 00:46:04;;;;;;;24.37;22.47;;;;;;;;;;4936467;29;20464;-44
2023/10/31 00:48:36;;;;;;;21.00;19.43;;;;;;;;;;4941974;29;20409;-44
2023/10/31 00:51:02;;;;;;;22.10;20.40;;;;;;;;;;4935569;29;20436;-44
2023/10/31 00:53:28;;;;;;;29.37;27.03;;;;;;;;;;4937041;29;20424;-44
2023/10/31 00:55:53;;;;;;;33.43;30.60;;;;;;;;;;4936318;29;20424;-44
2023/10/31 00:58:19;;;;;;;35.37;32.00;;;;;;;;;;4936086;29;20411;-44
2023/10/31 01:00:45;;;;;;;31.30;28.80;;;;;;;;;;4938095;29;20471;-44
2023/10/31 01:03:11;;;;;;;38.33;34.80;;;;;;;;;;4936412;29;20436;-44
2023/10/31 01:05:37;;;;;;;38.33;34.70;;;;;;;;;;4943099;29;20464;-44
2023/10/31 01:08:03;;;;;;;28.60;26.00;;;;;;;;;;4936667;29;20412;-44
2023/10/31 01:10:29;;;;;;;25.20;23.27;;;;;;;;;;4937444;29;20428;-43
2023/10/31 01:12:55;;;;;;;26.00;24.00;;;;;;;;;;4939690;29;20767;-44
2023/10/31 01:15:21;;;;;;;31.50;28.90;;;;;;;;;;4936215;29;20420;-44
2023/10/31 01:17:47;;;;;;;29.87;27.40;;;;;;;;;;4935935;29;20415;-44
2023/10/31 01:20:13;;;;;;;19.20;17.73;;;;;;;;;;4941936;29;20997;-44
2023/10/31 01:22:39;;;;;;;29.77;27.37;;;;;;;;;;4935956;29;20435;-44
2023/10/31 01:25:05;;;;;;;29.80;27.40;;;;;;;;;;4935670;29;20526;-44
2023/10/31 01:27:31;;;;;;;34.63;31.43;;;;;;;;;;4935736;29;20471;-44
2023/10/31 01:29:57;;;;;;;29.53;27.13;;;;;;;;;;4940176;29;20426;-43
2023/10/31 01:32:23;;;;;;;20.50;18.90;;;;;;;;;;4935854;29;20411;-44
2023/10/31 01:34:49;;;;;;;19.70;18.30;;;;;;;;;;4936053;29;20411;-44
2023/10/31 01:37:15;;;;;;;15.43;14.23;;;;;;;;;;4935598;29;20419;-44
2023/10/31 01:39:41;;;;;;;16.47;15.17;;;;;;;;;;4934736;29;20444;-44
2023/10/31 01:42:07;;;;;;;15.80;14.50;;;;;;;;;;4939068;29;20416;-43
2023/10/31 01:44:33;;;;;;;21.47;19.73;;;;;;;;;;4935347;29;20447;-44
2023/10/31 01:46:59;;;;;;;28.07;25.93;;;;;;;;;;4935347;29;20507;-44
2023/10/31 01:49:25;;;;;;;18.10;16.50;;;;;;;;;;4934601;29;20417;-44
2023/10/31 01:51:51;;;;;;;21.40;19.73;;;;;;;;;;4936020;29;20422;-44
2023/10/31 01:54:18;;;;;;;31.63;29.17;;;;;;;;;;4935763;29;20409;-44
2023/10/31 01:56:44;;;;;;;18.33;16.83;;;;;;;;;;4937164;29;20410;-44
2023/10/31 01:59:10;;;;;;;29.20;26.80;;;;;;;;;;4939573;29;20477;-44
2023/10/31 02:01:40;;;;;;;16.87;15.53;;;;;;;;;;4941238;29;20436;-43
2023/10/31 02:04:06;;;;;;;18.13;16.77;;;;;;;;;;4927710;29;20442;-44
2023/10/31 02:06:32;;;;;;;23.33;21.53;;;;;;;;;;4936747;29;20909;-44
2023/10/31 02:08:58;;;;;;;31.60;29.00;;;;;;;;;;4934123;29;20463;-43
2023/10/31 02:11:24;;;;;;;28.60;26.50;;;;;;;;;;4937340;29;20427;-44
2023/10/31 02:13:50;;;;;;;31.43;28.93;;;;;;;;;;4937089;29;20411;-44
2023/10/31 02:16:16;;;;;;;33.50;30.70;;;;;;;;;;4941551;28;20495;-45
2023/10/31 02:18:42;;;;;;;34.00;31.10;;;;;;;;;;4935142;29;20420;-43
2023/10/31 02:21:08;;;;;;;32.77;30.13;;;;;;;;;;4936019;29;20430;-44
2023/10/31 02:23:34;;;;;;;36.80;33.37;;;;;;;;;;4934649;29;20945;-43
2023/10/31 02:26:00;;;;;;;30.83;28.37;;;;;;;;;;4934705;29;20965;-44
2023/10/31 02:28:27;;;;;;;27.83;25.73;;;;;;;;;;4949496;28;20415;-45
2023/10/31 02:30:54;;;;;;;30.40;28.00;;;;;;;;;;4934168;29;20438;-44
2023/10/31 02:33:20;;;;;;;42.53;37.90;;;;;;;;;;4934797;29;20412;-44
2023/10/31 02:35:46;;;;;;;35.83;32.23;;;;;;;;;;4934306;29;20423;-44
2023/10/31 02:38:12;;;;;;;15.00;13.80;;;;;;;;;;4937807;29;20438;-44
2023/10/31 02:40:38;;;;;;;21.37;19.77;;;;;;;;;;4938834;29;20466;-45
2023/10/31 02:43:04;;;;;;;27.00;24.93;;;;;;;;;;4934499;29;20432;-44
2023/10/31 02:45:30;;;;;;;35.20;32.13;;;;;;;;;;4934484;29;20472;-44
2023/10/31 02:47:56;;;;;;;28.90;26.70;;;;;;;;;;4936270;29;20424;-44
2023/10/31 02:50:22;;;;;;;30.80;28.30;;;;;;;;;;4933688;29;20438;-44
2023/10/31 02:52:48;;;;;;;26.50;24.50;;;;;;;;;;4934334;29;20472;-44
2023/10/31 02:55:14;;;;;;;28.07;25.87;;;;;;;;;;4939383;29;20502;-45
2023/10/31 02:57:40;;;;;;;22.80;21.20;;;;;;;;;;4934387;29;20427;-45
2023/10/31 03:00:06;;;;;;;28.90;26.60;;;;;;;;;;4933531;29;20462;-44
2023/10/31 03:02:32;;;;;;;37.43;33.90;;;;;;;;;;4936234;29;20426;-44
2023/10/31 03:04:58;;;;;;;41.97;37.57;;;;;;;;;;4937514;29;20487;-44
2023/10/31 03:07:24;;;;;;;34.00;31.10;;;;;;;;;;4934150;29;20575;-44
2023/10/31 03:09:50;;;;;;;34.37;31.37;;;;;;;;;;4933554;29;20713;-44
2023/10/31 03:12:16;;;;;;;32.03;29.37;;;;;;;;;;4934293;29;20411;-44
2023/10/31 03:14:43;;;;;;;30.83;28.30;;;;;;;;;;4934435;29;20413;-44
2023/10/31 03:17:09;;;;;;;33.67;30.80;;;;;;;;;;4935755;29;20408;-45
2023/10/31 03:19:35;;;;;;;32.40;29.73;;;;;;;;;;4936679;29;20449;-44
2023/10/31 03:22:01;;;;;;;32.50;29.73;;;;;;;;;;4940113;29;20424;-44
2023/10/31 03:24:27;;;;;;;29.77;27.27;;;;;;;;;;4942644;29;20446;-44
2023/10/31 03:26:53;;;;;;;31.80;29.20;;;;;;;;;;4939638;29;20821;-44
2023/10/31 03:29:19;;;;;;;39.57;35.97;;;;;;;;;;4934371;29;20489;-46
2023/10/31 03:31:45;;;;;;;36.90;33.50;;;;;;;;;;4937761;29;20440;-45
2023/10/31 03:34:11;;;;;;;41.13;36.90;;;;;;;;;;4937693;29;20999;-44
2023/10/31 03:36:37;;;;;;;38.30;34.67;;;;;;;;;;4937675;29;20411;-44
2023/10/31 03:39:03;;;;;;;39.27;35.27;;;;;;;;;;4943041;29;20473;-44
2023/10/31 03:41:29;;;;;;;52.43;40.17;;;;;;;;;;4937281;29;20447;-44
2023/10/31 03:43:55;;;;;;;52.60;40.97;;;;;;;;;;4937582;29;20501;-45
2023/10/31 03:46:21;;;;;;;59.53;43.43;;;;;;;;;;4937493;29;20477;-44
2023/10/31 03:48:46;;;;;;;53.27;42.03;;;;;;;;;;4937295;29;20411;-45
2023/10/31 03:51:12;;;;;;;61.80;42.90;;;;;;;;;;4937064;29;20434;-44
2023/10/31 03:53:38;;;;;;;77.20;46.17;;;;;;;;;;4937477;29;20476;-44
2023/10/31 03:56:04;;;;;;;87.60;47.20;;;;;;;;;;4937402;29;20407;-44
2023/10/31 03:58:30;;;;;;;82.77;47.40;;;;;;;;;;4937343;29;20812;-44
2023/10/31 04:00:56;;;;;;;65.07;43.77;;;;;;;;;;4936622;29;20435;-44
2023/10/31 04:03:22;;;;;;;65.83;44.90;;;;;;;;;;4937244;29;20825;-44
2023/10/31 04:05:48;;;;;;;69.50;44.67;;;;;;;;;;4937024;29;20975;-44
2023/10/31 04:08:14;;;;;;;67.30;44.80;;;;;;;;;;4937692;29;20832;-44
2023/10/31 04:10:40;;;;;;;65.13;43.47;;;;;;;;;;4936361;29;20963;-44
2023/10/31 04:13:06;;;;;;;71.83;46.80;;;;;;;;;;4937215;29;20478;-44
2023/10/31 04:15:34;;;;;;;70.57;45.03;;;;;;;;;;4937281;29;20507;-44
2023/10/31 04:18:00;;;;;;;67.00;44.80;;;;;;;;;;4936230;29;20857;-45
2023/10/31 04:20:26;;;;;;;48.13;42.00;;;;;;;;;;4936245;29;20463;-44
2023/10/31 04:22:52;;;;;;;39.80;35.80;;;;;;;;;;4936789;29;20921;-44
2023/10/31 04:25:18;;;;;;;40.70;36.57;;;;;;;;;;4936851;29;20467;-44
2023/10/31 04:27:44;;;;;;;56.40;44.27;;;;;;;;;;4936850;29;21048;-44
2023/10/31 04:30:10;;;;;;;66.40;45.03;;;;;;;;;;4936019;29;20434;-44
2023/10/31 04:32:36;;;;;;;56.43;42.57;;;;;;;;;;4936625;29;20427;-44
2023/10/31 04:35:02;;;;;;;51.67;41.77;;;;;;;;;;4936709;29;20734;-44
2023/10/31 04:37:28;;;;;;;54.23;42.77;;;;;;;;;;4932637;29;20421;-45
2023/10/31 04:39:54;;;;;;;55.30;43.20;;;;;;;;;;4935854;29;20458;-44
2023/10/31 04:42:20;;;;;;;55.80;44.03;;;;;;;;;;4936607;29;20469;-44
2023/10/31 04:44:46;;;;;;;53.87;43.87;;;;;;;;;;4936483;29;20430;-44
2023/10/31 04:47:12;;;;;;;53.87;43.60;;;;;;;;;;4936389;29;20420;-44
2023/10/31 04:49:38;;;;;;;48.80;40.87;;;;;;;;;;4935839;29;20445;-44
2023/10/31 04:52:04;;;;;;;47.43;40.43;;;;;;;;;;4936302;29;20448;-44
2023/10/31 04:54:30;;;;;;;47.40;40.87;;;;;;;;;;4936461;29;20435;-44
2023/10/31 04:56:56;;;;;;;53.00;44.03;;;;;;;;;;4936228;29;20515;-44
2023/10/31 04:59:22;;;;;;;56.20;46.53;;;;;;;;;;4935520;29;20437;-44
2023/10/31 05:01:49;;;;;;;49.70;42.70;;;;;;;;;;4936143;29;20518;-44
2023/10/31 05:04:15;;;;;;;48.67;42.03;;;;;;;;;;4936648;29;20780;-44
2023/10/31 05:06:42;;;;;;;44.20;39.57;;;;;;;;;;4936048;29;20559;-44
2023/10/31 05:09:08;;;;;;;45.70;41.07;;;;;;;;;;4935712;29;20986;-44
2023/10/31 05:11:33;;;;;;;43.80;39.30;;;;;;;;;;4936009;29;20431;-44
2023/10/31 05:13:59;;;;;;;42.47;38.07;;;;;;;;;;4936742;29;20419;-44
2023/10/31 05:16:25;;;;;;;45.03;39.70;;;;;;;;;;4935846;29;20473;-44
2023/10/31 05:18:51;;;;;;;44.60;38.67;;;;;;;;;;4935853;29;20437;-44
2023/10/31 05:21:20;;;;;;;50.17;40.83;;;;;;;;;;4935124;29;20447;-44
2023/10/31 05:23:46;;;;;;;47.77;40.57;;;;;;;;;;4935764;29;20810;-43
2023/10/31 05:26:12;;;;;;;25.10;23.20;;;;;;;;;;4935893;29;20463;-43
2023/10/31 05:28:38;;;;;;;24.17;22.43;;;;;;;;;;4935989;29;20755;-45
2023/10/31 05:31:04;;;;;;;26.13;24.23;;;;;;;;;;4935068;29;20526;-44
2023/10/31 05:33:30;;;;;;;9.77;8.60;;;;;;;;;;4935702;29;20497;-44
2023/10/31 05:35:56;;;;;;;11.47;10.47;;;;;;;;;;4935870;29;20418;-44
2023/10/31 05:38:22;;;;;;;16.57;15.30;;;;;;;;;;4935638;29;20407;-45
2023/10/31 05:40:48;;;;;;;14.57;13.37;;;;;;;;;;4934871;29;20444;-44
2023/10/31 05:43:14;;;;;;;13.87;12.77;;;;;;;;;;4940431;29;20412;-44
2023/10/31 05:45:40;;;;;;;9.23;8.27;;;;;;;;;;4934512;29;20635;-44
2023/10/31 05:48:06;;;;;;;11.77;10.70;;;;;;;;;;4927744;29;20418;-44
2023/10/31 05:50:32;;;;;;;16.03;14.73;;;;;;;;;;4936190;29;20441;-44
2023/10/31 05:52:58;;;;;;;16.67;15.33;;;;;;;;;;4938530;29;20494;-45
2023/10/31 05:55:24;;;;;;;13.80;12.60;;;;;;;;;;4935357;29;20831;-44
2023/10/31 05:57:50;;;;;;;10.90;9.90;;;;;;;;;;4935332;29;20421;-44
2023/10/31 06:00:16;;;;;;;11.60;10.50;;;;;;;;;;4934355;29;20471;-44
2023/10/31 06:02:42;;;;;;;10.33;9.33;;;;;;;;;;4943046;29;20509;-44
2023/10/31 06:05:08;;;;;;;9.90;9.00;;;;;;;;;;4935130;29;20562;-44
2023/10/31 06:07:34;;;;;;;9.40;8.50;;;;;;;;;;4935228;29;20418;-44
2023/10/31 06:10:00;;;;;;;9.47;8.53;;;;;;;;;;4934367;29;20565;-44
2023/10/31 06:12:27;;;;;;;9.50;8.53;;;;;;;;;;4935236;29;20411;-44
2023/10/31 06:14:53;;;;;;;9.00;8.10;;;;;;;;;;4935033;29;20409;-44
2023/10/31 06:17:19;;;;;;;10.70;9.70;;;;;;;;;;4935154;29;20407;-44
2023/10/31 06:19:47;;;;;;;10.80;9.80;;;;;;;;;;4935586;29;20438;-45
2023/10/31 06:22:13;;;;;;;11.07;10.07;;;;;;;;;;4937535;29;20418;-44
2023/10/31 06:24:40;;;;;;;11.53;10.43;;;;;;;;;;4939379;29;20408;-44
2023/10/31 06:27:06;;;;;;;11.23;10.23;;;;;;;;;;4927086;29;20415;-44
2023/10/31 06:29:32;;;;;;;10.50;9.40;;;;;;;;;;4941004;29;20464;-44
2023/10/31 06:31:58;;;;;;;11.10;10.20;;;;;;;;;;4937066;29;20414;-44
2023/10/31 06:34:24;;;;;;;8.83;7.63;;;;;;;;;;4935458;29;20436;-44
2023/10/31 06:36:52;;;;;;;10.63;9.00;;;;;;;;;;4936683;29;20508;-44
2023/10/31 06:39:18;;;;;;;17.30;13.10;;;;;;;;;;4934059;29;20427;-44
2023/10/31 06:41:44;;;;;;;9.67;8.67;;;;;;;;;;4940599;29;20435;-44
2023/10/31 06:44:10;;;;;;;8.40;7.23;;;;;;;;;;4942260;29;20428;-44
2023/10/31 06:46:36;;;;;;;8.90;7.57;;;;;;;;;;4931721;29;20468;-44
2023/10/31 06:49:01;;;;;;;9.90;8.90;;;;;;;;;;4934012;29;20860;-44
2023/10/31 06:51:27;;;;;;;9.57;7.17;;;;;;;;;;4934023;29;20458;-44
2023/10/31 06:53:53;;;;;;;9.63;8.53;;;;;;;;;;4934453;29;20826;-44
2023/10/31 06:56:19;;;;;;;9.03;7.60;;;;;;;;;;4937096;29;20420;-44
2023/10/31 06:58:45;;;;;;;8.50;7.60;;;;;;;;;;4934180;29;20428;-44
2023/10/31 07:01:13;;;;;;;8.10;6.93;;;;;;;;;;4933739;29;20998;-44
2023/10/31 07:03:39;;;;;;;9.47;8.53;;;;;;;;;;4934315;29;20435;-44
2023/10/31 07:06:05;;;;;;;9.20;8.30;;;;;;;;;;4934195;29;20462;-44
2023/10/31 07:08:31;;;;;;;8.70;7.37;;;;;;;;;;4934345;29;20411;-44
2023/10/31 07:10:57;;;;;;;10.10;8.57;;;;;;;;;;4933393;29;20430;-44
2023/10/31 07:13:23;;;;;;;9.57;8.60;;;;;;;;;;4934419;29;20408;-44
2023/10/31 07:15:49;;;;;;;9.07;8.17;;;;;;;;;;4934613;29;20417;-44
2023/10/31 07:18:15;;;;;;;9.57;8.67;;;;;;;;;;4934140;29;20480;-44
2023/10/31 07:20:41;;;;;;;9.87;8.87;;;;;;;;;;4933411;29;20494;-44
2023/10/31 07:23:07;;;;;;;13.40;12.00;;;;;;;;;;4933535;29;20431;-44
2023/10/31 07:25:33;;;;;;;11.00;10.00;;;;;;;;;;4927219;29;20470;-45
2023/10/31 07:27:59;;;;;;;11.53;10.53;;;;;;;;;;4932657;29;20491;-44
2023/10/31 07:30:25;;;;;;;17.77;14.43;;;;;;;;;;4929183;29;20452;-44
2023/10/31 07:32:51;;;;;;;11.43;10.33;;;;;;;;;;4932157;29;20415;-44
2023/10/31 07:35:19;;;;;;;8.13;7.30;;;;;;;;;;4933417;29;20412;-44
2023/10/31 07:37:45;;;;;;;10.80;9.70;;;;;;;;;;4933277;29;20439;-44
2023/10/31 07:40:11;;;;;;;11.37;10.27;;;;;;;;;;4934787;29;20567;-44
2023/10/31 07:42:37;;;;;;;11.50;10.40;;;;;;;;;;4937084;29;20831;-43
2023/10/31 07:45:04;;;;;;;11.27;10.17;;;;;;;;;;4933194;29;20975;-44
2023/10/31 07:47:30;;;;;;;10.23;8.83;;;;;;;;;;4933241;29;20468;-44
2023/10/31 07:49:56;;;;;;;10.00;8.53;;;;;;;;;;4932430;29;20534;-44
2023/10/31 07:52:22;;;;;;;9.80;8.83;;;;;;;;;;4933188;29;20416;-44
2023/10/31 07:54:47;;;;;;;10.40;9.40;;;;;;;;;;4931970;29;20416;-44
2023/10/31 07:57:13;;;;;;;11.27;10.23;;;;;;;;;;4933477;29;20422;-44
2023/10/31 07:59:39;;;;;;;11.07;10.00;;;;;;;;;;4932637;29;20444;-44
2023/10/31 08:02:06;;;;;;;10.93;9.90;;;;;;;;;;4933442;29;20796;-44
2023/10/31 08:04:32;;;;;;;9.77;8.80;;;;;;;;;;4947292;28;20508;-44
2023/10/31 08:06:58;;;;;;;13.23;10.60;;;;;;;;;;4932103;29;20988;-44
2023/10/31 08:09:24;;;;;;;14.70;12.20;;;;;;;;;;4934731;29;20399;-44
2023/10/31 08:11:50;;;;;;;9.77;8.83;;;;;;;;;;4937445;29;20906;-44
2023/10/31 08:14:16;;;;;;;11.73;10.50;;;;;;;;;;4936231;29;20783;-44
2023/10/31 08:16:42;;;;;;;10.57;9.50;;;;;;;;;;4937109;29;20500;-43
2023/10/31 08:19:08;;;;;;;17.10;14.33;;;;;;;;;;4936849;29;20416;-44
2023/10/31 08:21:35;;;;;;;9.20;8.23;;;;;;;;;;4943619;29;20439;-44
2023/10/31 08:24:05;;;;;;;11.90;10.50;;;;;;;;;;4938163;29;20450;-44
2023/10/31 08:26:34;;;;;;;10.30;9.20;;;;;;;;;;4938206;29;20470;-44
2023/10/31 08:29:00;;;;;;;10.13;9.07;;;;;;;;;;4937483;29;20408;-44
2023/10/31 08:31:26;;;;;;;10.17;9.17;;;;;;;;;;4936460;29;20462;-44
2023/10/31 08:33:52;;;;;;;9.60;8.70;;;;;;;;;;4942858;29;20874;-44
2023/10/31 08:36:18;;;;;;;8.73;7.87;;;;;;;;;;4943669;29;20774;-44
2023/10/31 08:38:44;;;;;;;9.57;8.60;;;;;;;;;;4937951;29;20421;-43
2023/10/31 08:41:10;;;;;;;9.87;8.97;;;;;;;;;;4933431;29;20483;-45
2023/10/31 08:43:36;;;;;;;10.50;9.50;;;;;;;;;;4931202;29;20583;-44
2023/10/31 08:46:02;;;;;;;10.10;9.20;;;;;;;;;;4936110;29;20555;-44
2023/10/31 08:48:28;;;;;;;8.93;8.03;;;;;;;;;;4936819;29;20408;-45
2023/10/31 08:50:54;;;;;;;10.33;9.33;;;;;;;;;;4940308;29;20470;-44
2023/10/31 08:53:20;;;;;;;8.10;7.30;;;;;;;;;;4936697;29;20419;-44
2023/10/31 08:55:46;;;;;;;8.67;7.77;;;;;;;;;;4936523;29;20416;-46
2023/10/31 08:58:18;;;;;;;9.63;8.73;;;;;;;;;;4936441;29;20412;-44
2023/10/31 09:00:44;;;;;;;9.50;8.57;;;;;;;;;;4935563;29;20437;-44
2023/10/31 09:03:10;;;;;;;9.90;8.93;;;;;;;;;;4936363;29;20422;-44
2023/10/31 09:05:36;;;;;;;9.97;8.97;;;;;;;;;;4936303;28;20838;-44
2023/10/31 09:08:02;;;;;;;10.27;9.27;;;;;;;;;;4936377;29;20414;-44
2023/10/31 09:10:28;;;;;;;11.57;10.53;;;;;;;;;;4932463;29;20924;-44
2023/10/31 09:12:54;;;;;;;14.70;12.17;;;;;;;;;;4936634;29;20513;-44
2023/10/31 09:15:21;;;;;;;15.50;13.57;;;;;;;;;;4940257;29;20417;-45
2023/10/31 09:17:47;;;;;;;10.57;9.57;;;;;;;;;;4942027;29;20443;-44
2023/10/31 09:20:13;;;;;;;10.07;9.07;;;;;;;;;;4934499;29;20432;-44
2023/10/31 09:22:39;;;;;;;9.80;8.90;;;;;;;;;;4934748;29;20469;-44
2023/10/31 09:25:06;;;;;;;9.33;8.40;;;;;;;;;;4935825;29;20492;-44
2023/10/31 09:27:32;;;;;;;11.03;10.03;;;;;;;;;;4940242;29;20914;-44
2023/10/31 09:29:58;;;;;;;10.93;9.93;;;;;;;;;;4940866;29;20473;-44
2023/10/31 09:32:24;;;;;;;10.87;9.87;;;;;;;;;;4943373;29;20772;-44
2023/10/31 09:34:50;;;;;;;11.90;10.80;;;;;;;;;;4937005;29;20438;-44
2023/10/31 09:37:16;;;;;;;9.90;8.97;;;;;;;;;;4934228;29;20410;-44
2023/10/31 09:39:42;;;;;;;11.33;10.33;;;;;;;;;;4939144;29;20461;-45
2023/10/31 09:42:08;;;;;;;10.60;9.67;;;;;;;;;;4937285;29;20434;-44
2023/10/31 09:44:34;;;;;;;10.33;9.33;;;;;;;;;;4939792;29;20417;-45
2023/10/31 09:47:01;;;;;;;11.73;10.70;;;;;;;;;;4942900;29;20472;-44
2023/10/31 09:49:28;;;;;;;14.57;13.03;;;;;;;;;;4935867;29;20413;-45
2023/10/31 09:51:54;;;;;;;10.40;9.50;;;;;;;;;;4945922;29;20445;-45
2023/10/31 09:54:20;;;;;;;10.80;9.80;;;;;;;;;;4954536;29;20413;-44
2023/10/31 09:56:46;;;;;;;10.53;9.53;;;;;;;;;;4954485;29;20499;-44
2023/10/31 09:59:14;;;;;;;13.57;12.27;;;;;;;;;;4953660;28;20423;-44
2023/10/31 10:01:40;;;;;;;10.13;9.20;;;;;;;;;;4953419;29;20429;-44
2023/10/31 10:04:06;;;;;;;10.07;9.17;;;;;;;;;;4935440;29;20417;-44
2023/10/31 10:06:32;;;;;;;9.30;8.40;;;;;;;;;;4934946;29;20473;-44
2023/10/31 10:08:58;;;;;;;12.87;11.67;;;;;;;;;;4935007;29;20418;-43
2023/10/31 10:11:25;;;;;;;11.27;10.27;;;;;;;;;;4946519;29;20429;-44
2023/10/31 10:13:53;;;;;;;10.20;9.30;;;;;;;;;;4954257;29;20985;-44
2023/10/31 10:16:32;;;;;;;10.67;9.73;;;;;;;;;;4950398;29;20417;-44
2023/10/31 10:19:15;;;;;;;12.37;11.17;;;;;;;;;;4953990;29;20997;-44
2023/10/31 10:21:48;;;;;;;11.13;10.13;;;;;;;;;;4954311;28;20426;-44
2023/10/31 10:24:15;;;;;;;11.30;10.40;;;;;;;;;;4954179;29;20414;-44
2023/10/31 10:26:41;;;;;;;10.50;9.60;;;;;;;;;;4954204;29;20522;-44
2023/10/31 10:29:07;;;;;;;13.63;12.33;;;;;;;;;;4935012;29;20421;-44
2023/10/31 10:31:33;;;;;;;12.00;11.03;;;;;;;;;;4949620;28;20436;-44
2023/10/31 10:34:01;;;;;;;13.07;11.93;;;;;;;;;;4953897;28;20429;-44
2023/10/31 10:36:28;;;;;;;11.67;10.57;;;;;;;;;;4953871;29;20420;-44
2023/10/31 10:38:58;;;;;;;10.60;9.60;;;;;;;;;;4953794;29;20427;-44
2023/10/31 10:41:27;;;;;;;10.77;9.80;;;;;;;;;;4944585;29;20519;-44
2023/10/31 10:43:57;;;;;;;11.20;10.10;;;;;;;;;;4936233;29;20450;-44
2023/10/31 10:46:28;;;;;;;10.03;9.13;;;;;;;;;;4934671;29;20474;-44
2023/10/31 10:48:57;;;;;;;10.97;9.97;;;;;;;;;;4936219;29;20461;-44
2023/10/31 10:51:31;;;;;;;24.77;20.50;;;;;;;;;;4932112;29;20433;-44
2023/10/31 10:54:05;;;;;;;11.77;10.73;;;;;;;;;;4950173;29;20477;-45
2023/10/31 10:56:37;;;;;;;10.87;9.83;;;;;;;;;;4953462;29;20408;-44
2023/10/31 10:59:04;;;;;;;9.80;8.90;;;;;;;;;;4953279;29;20827;-44
2023/10/31 11:01:31;;;;;;;10.57;9.57;;;;;;;;;;4953075;29;20438;-44
2023/10/31 11:03:58;;;;;;;10.30;9.30;;;;;;;;;;4953581;29;20422;-45
2023/10/31 11:06:25;;;;;;;10.27;9.27;;;;;;;;;;4953536;29;20471;-44
2023/10/31 11:08:52;;;;;;;9.67;8.67;;;;;;;;;;4953449;29;20420;-44
2023/10/31 11:11:19;;;;;;;9.90;8.90;;;;;;;;;;4952602;29;20539;-44
2023/10/31 11:13:45;;;;;;;8.00;7.20;;;;;;;;;;4932084;29;20429;-43
2023/10/31 11:16:18;;;;;;;8.90;8.07;;;;;;;;;;4937669;29;20417;-44
2023/10/31 11:18:44;;;;;;;11.07;9.00;;;;;;;;;;4937210;29;20415;-44
2023/10/31 11:21:10;;;;;;;12.97;11.57;;;;;;;;;;4931996;29;20444;-43
2023/10/31 11:23:36;;;;;;;9.53;8.47;;;;;;;;;;4939043;29;20425;-44
2023/10/31 11:26:03;;;;;;;9.90;8.77;;;;;;;;;;4933921;29;20472;-44
2023/10/31 11:28:29;;;;;;;9.97;8.97;;;;;;;;;;4934434;29;20991;-44
2023/10/31 11:31:00;;;;;;;9.10;8.20;;;;;;;;;;4933602;29;20453;-45
2023/10/31 11:33:27;;;;;;;11.47;10.47;;;;;;;;;;4934205;29;20429;-44
2023/10/31 11:36:00;;;;;;;10.97;9.97;;;;;;;;;;4939634;29;20844;-44
2023/10/31 11:38:33;;;;;;;10.70;9.80;;;;;;;;;;4941155;29;21680;-44
2023/10/31 11:41:00;;;;;;;12.10;11.10;;;;;;;;;;4933322;29;20440;-45
2023/10/31 11:43:35;;;;;;;11.70;10.77;;;;;;;;;;4936358;29;20410;-44
2023/10/31 11:46:01;;;;;;;15.07;13.87;;;;;;;;;;4937741;29;20469;-44
2023/10/31 11:48:46;;;;;;;16.43;15.23;;;;;;;;;;4937802;29;20417;-44
2023/10/31 11:51:13;;;;;;;15.13;14.03;;;;;;;;;;4930023;29;20953;-44
2023/10/31 11:53:40;;;;;;;13.80;12.80;;;;;;;;;;4937828;29;20473;-44
2023/10/31 11:56:06;;;;;;;16.83;15.63;;;;;;;;;;4937773;29;20398;-45
2023/10/31 11:58:32;;;;;;;16.10;14.90;;;;;;;;;;4939911;29;20415;-45
2023/10/31 12:01:03;;;;;;;20.20;18.80;;;;;;;;;;4940528;29;20976;-45
2023/10/31 12:03:36;;;;;;;48.93;44.80;;;;;;;;;;4942897;29;20909;-44
2023/10/31 12:06:03;;;;;;;59.10;53.07;;;;;;;;;;4944414;29;20482;-44
2023/10/31 12:08:33;;;;;;;96.33;70.83;;;;;;;;;;4938146;29;20407;-44
2023/10/31 12:11:09;;;;;;;133.80;83.57;;;;;;;;;;4936489;29;20443;-44
2023/10/31 12:13:35;;;;;;;95.50;66.97;;;;;;;;;;4937442;29;20415;-44
2023/10/31 12:16:02;;;;;;;91.03;70.43;;;;;;;;;;4937264;29;20424;-44
2023/10/31 12:18:28;;;;;;;63.47;57.17;;;;;;;;;;4942365;29;20411;-44
2023/10/31 12:20:54;;;;;;;63.30;57.30;;;;;;;;;;4943309;29;20442;-44
2023/10/31 12:23:20;;;;;;;53.53;49.03;;;;;;;;;;4937657;29;20434;-44
2023/10/31 12:25:53;;;;;;;48.30;44.67;;;;;;;;;;4939141;29;20523;-44
2023/10/31 12:28:19;;;;;;;56.57;51.77;;;;;;;;;;4936128;29;20427;-44
2023/10/31 12:30:49;;;;;;;71.10;63.30;;;;;;;;;;4938854;28;20437;-44
2023/10/31 12:33:15;;;;;;;71.50;64.37;;;;;;;;;;4938664;29;20515;-44
2023/10/31 12:35:42;;;;;;;94.30;74.13;;;;;;;;;;4938265;29;20411;-44
2023/10/31 12:38:08;;;;;;;114.90;78.27;;;;;;;;;;4935945;29;20412;-44
2023/10/31 12:40:34;;;;;;;77.33;66.10;;;;;;;;;;4936609;29;20526;-45
2023/10/31 12:43:02;;;;;;;76.80;67.87;;;;;;;;;;4940470;29;20437;-44
2023/10/31 12:45:27;;;;;;;62.70;56.83;;;;;;;;;;4936658;29;20473;-44
2023/10/31 12:48:10;;;;;;;57.60;53.10;;;;;;;;;;4943379;28;20414;-44
2023/10/31 12:50:37;;;;;;;59.30;54.00;;;;;;;;;;4954968;29;20434;-44
2023/10/31 12:53:04;;;;;;;59.30;54.70;;;;;;;;;;4955632;28;20406;-44
2023/10/31 12:55:30;;;;;;;44.03;40.93;;;;;;;;;;4955552;29;20489;-45
2023/10/31 12:57:57;;;;;;;50.63;46.83;;;;;;;;;;4945253;29;20421;-44
2023/10/31 13:00:31;;;;;;;58.87;53.30;;;;;;;;;;4935372;29;20434;-44
2023/10/31 13:03:04;;;;;;;53.83;49.53;;;;;;;;;;4943036;29;20418;-44
2023/10/31 13:05:30;;;;;;;55.47;51.27;;;;;;;;;;4936124;29;20545;-45
2023/10/31 13:07:57;;;;;;;52.20;48.20;;;;;;;;;;4936237;29;20514;-45
2023/10/31 13:10:26;;;;;;;52.67;48.57;;;;;;;;;;4939155;29;20431;-44
2023/10/31 13:12:53;;;;;;;51.27;47.23;;;;;;;;;;4935377;29;20421;-44
2023/10/31 13:15:20;;;;;;;43.30;39.90;;;;;;;;;;4938016;29;20444;-44
2023/10/31 13:17:46;;;;;;;38.93;36.70;;;;;;;;;;4936468;29;20420;-44
2023/10/31 13:20:14;;;;;;;43.77;41.27;;;;;;;;;;4935430;29;20493;-44
2023/10/31 13:22:40;;;;;;;50.27;47.37;;;;;;;;;;4936381;29;20482;-46
2023/10/31 13:25:09;;;;;;;59.67;55.77;;;;;;;;;;4935951;29;20762;-44
2023/10/31 13:27:35;;;;;;;57.50;53.60;;;;;;;;;;4941458;29;20421;-44
2023/10/31 13:30:02;;;;;;;56.47;52.63;;;;;;;;;;4935181;29;20559;-44
2023/10/31 13:32:28;;;;;;;65.60;60.90;;;;;;;;;;4936337;29;20911;-45
2023/10/31 13:34:54;;;;;;;60.40;56.20;;;;;;;;;;4937935;29;20422;-44
2023/10/31 13:37:20;;;;;;;57.67;53.90;;;;;;;;;;4936556;29;20433;-45
2023/10/31 13:39:46;;;;;;;50.63;47.57;;;;;;;;;;4937654;29;20520;-44
2023/10/31 13:42:13;;;;;;;45.50;42.87;;;;;;;;;;4940837;29;20465;-44
2023/10/31 13:44:39;;;;;;;40.37;38.10;;;;;;;;;;4935731;29;20907;-44
2023/10/31 13:47:05;;;;;;;41.50;39.10;;;;;;;;;;4935788;29;20467;-44
2023/10/31 13:49:31;;;;;;;43.27;40.70;;;;;;;;;;4936890;29;20404;-44
2023/10/31 13:51:57;;;;;;;40.50;38.20;;;;;;;;;;4938966;29;20414;-44
2023/10/31 13:54:23;;;;;;;41.73;39.40;;;;;;;;;;4938066;29;20414;-45
2023/10/31 13:56:49;;;;;;;43.57;41.03;;;;;;;;;;4937646;29;20409;-45
2023/10/31 13:59:15;;;;;;;50.43;47.30;;;;;;;;;;4941360;29;20895;-45
2023/10/31 14:01:41;;;;;;;46.30;43.60;;;;;;;;;;4935512;29;20939;-45
2023/10/31 14:04:08;;;;;;;43.53;41.10;;;;;;;;;;4937486;29;20417;-44
2023/10/31 14:06:34;;;;;;;62.17;57.77;;;;;;;;;;4931938;29;20522;-44
2023/10/31 14:09:04;;;;;;;56.23;52.87;;;;;;;;;;4939696;29;20796;-44
2023/10/31 14:11:31;;;;;;;58.77;55.47;;;;;;;;;;4938997;29;20471;-45
2023/10/31 14:14:02;;;;;;;53.00;50.00;;;;;;;;;;4936381;29;20409;-44
2023/10/31 14:16:29;;;;;;;59.23;55.83;;;;;;;;;;4935322;29;20532;-45
2023/10/31 14:18:55;;;;;;;63.07;59.27;;;;;;;;;;4936394;29;20397;-44
2023/10/31 14:21:21;;;;;;;57.30;54.20;;;;;;;;;;4937698;29;20448;-45